createdAt,value
2023-05-20T00:02:03.760Z,39.40
2023-05-20T00:05:10.828Z,39.46
2023-05-20T00:08:17.532Z,39.43
2023-05-20T00:11:22.177Z,39.38
2023-05-20T00:14:28.750Z,39.40
2023-05-20T00:17:35.164Z,39.26
2023-05-20T00:20:41.168Z,39.43
2023-05-20T00:23:47.565Z,39.38
2023-05-20T00:26:53.132Z,39.33
2023-05-20T00:29:58.890Z,39.23
2023-05-20T00:33:04.536Z,39.14
2023-05-20T00:36:10.208Z,39.06
2023-05-20T00:39:16.898Z,38.99
2023-05-20T00:42:22.687Z,39.05
2023-05-20T00:45:28.736Z,39.07
2023-05-20T00:48:35.224Z,38.96
2023-05-20T00:51:40.965Z,39.08
2023-05-20T00:54:45.818Z,39.17
2023-05-20T00:57:52.068Z,39.16
2023-05-20T01:00:58.244Z,39.18
2023-05-20T01:04:02.707Z,39.21
2023-05-20T01:07:09.574Z,39.30
2023-05-20T01:10:16.504Z,39.23
2023-05-20T01:13:21.585Z,39.39
2023-05-20T01:16:27.995Z,39.42
2023-05-20T01:19:56.839Z,39.45
2023-05-20T01:23:09.785Z,39.53
2023-05-20T01:26:14.614Z,39.51
2023-05-20T01:29:21.155Z,39.50
2023-05-20T01:32:30.721Z,39.56
2023-05-20T01:35:38.361Z,39.68
2023-05-20T01:38:44.605Z,39.57
2023-05-20T01:41:49.802Z,39.58
2023-05-20T01:44:48.326Z,39.57
2023-05-20T01:47:40.844Z,39.57
2023-05-20T01:50:48.658Z,39.59
2023-05-20T01:53:54.404Z,39.64
2023-05-20T01:57:02.189Z,39.95
2023-05-20T02:00:14.771Z,39.85
2023-05-20T02:03:21.875Z,39.74
2023-05-20T02:06:27.322Z,39.66
2023-05-20T02:09:34.202Z,39.51
2023-05-20T02:12:39.695Z,39.38
2023-05-20T02:15:44.634Z,39.38
2023-05-20T02:18:51.097Z,39.32
2023-05-20T02:21:57.072Z,39.19
2023-05-20T02:25:02.954Z,38.93
2023-05-20T02:28:12.105Z,38.52
2023-05-20T02:31:16.694Z,38.24
2023-05-20T02:34:22.117Z,38.00
2023-05-20T02:37:29.225Z,37.68
2023-05-20T02:40:35.029Z,37.46
2023-05-20T02:43:41.423Z,36.88
2023-05-20T02:46:41.250Z,36.73
2023-05-20T02:49:47.944Z,36.52
2023-05-20T02:52:54.638Z,36.00
2023-05-20T02:56:01.683Z,35.45
2023-05-20T02:59:07.667Z,35.15
2023-05-20T03:02:14.190Z,34.92
2023-05-20T03:05:21.181Z,34.69
2023-05-20T03:08:27.037Z,34.47
2023-05-20T03:11:31.364Z,34.42
2023-05-20T03:14:36.686Z,34.14
2023-05-20T03:17:42.725Z,33.66
2023-05-20T03:20:48.919Z,33.70
2023-05-20T03:23:54.144Z,33.68
2023-05-20T03:27:00.478Z,33.86
2023-05-20T03:30:07.000Z,33.75
2023-05-20T03:33:12.667Z,33.85
2023-05-20T03:36:18.153Z,33.82
2023-05-20T03:39:23.946Z,33.76
2023-05-20T03:42:29.658Z,33.92
2023-05-20T03:45:34.940Z,33.68
2023-05-20T03:48:41.465Z,33.68
2023-05-20T03:51:47.542Z,33.75
2023-05-20T03:54:54.340Z,33.89
2023-05-20T03:58:00.565Z,33.72
2023-05-20T04:00:58.782Z,33.45
2023-05-20T04:04:04.047Z,33.22
2023-05-20T04:07:12.112Z,33.29
2023-05-20T04:10:18.614Z,33.45
2023-05-20T04:13:25.268Z,33.68
2023-05-20T04:16:30.689Z,33.18
2023-05-20T04:19:36.975Z,33.35
2023-05-20T04:22:42.867Z,33.03
2023-05-20T04:25:49.082Z,33.08
2023-05-20T04:28:48.488Z,33.10
2023-05-20T04:31:54.395Z,32.88
2023-05-20T04:35:02.530Z,32.99
2023-05-20T04:38:09.473Z,33.26
2023-05-20T04:41:14.638Z,33.20
2023-05-20T04:44:19.857Z,33.26
2023-05-20T04:47:25.607Z,33.07
2023-05-20T04:50:31.186Z,33.03
2023-05-20T04:53:40.671Z,32.57
2023-05-20T04:56:47.122Z,32.55
2023-05-20T04:59:52.981Z,32.89
2023-05-20T05:02:58.410Z,33.30
2023-05-20T05:06:03.113Z,32.40
2023-05-20T05:09:08.982Z,32.85
2023-05-20T05:12:14.662Z,33.27
2023-05-20T05:15:21.217Z,33.20
2023-05-20T05:18:27.728Z,32.91
2023-05-20T05:21:33.833Z,32.97
2023-05-20T05:24:39.590Z,32.82
2023-05-20T05:27:46.341Z,32.88
2023-05-20T05:30:51.610Z,32.79
2023-05-20T05:33:58.224Z,32.86
2023-05-20T05:37:05.032Z,33.05
2023-05-20T05:40:11.340Z,32.34
2023-05-20T05:43:18.903Z,32.54
2023-05-20T05:46:24.577Z,32.83
2023-05-20T05:49:30.208Z,32.19
2023-05-20T05:52:36.085Z,31.46
2023-05-20T05:55:43.283Z,32.35
2023-05-20T05:58:49.539Z,31.94
2023-05-20T06:01:55.673Z,31.71
2023-05-20T06:05:02.183Z,31.09
2023-05-20T06:08:10.151Z,30.62
2023-05-20T06:11:16.289Z,30.54
2023-05-20T06:14:22.469Z,30.87
2023-05-20T06:17:22.460Z,30.27
2023-05-20T06:20:28.099Z,29.77
2023-05-20T06:23:35.100Z,29.02
2023-05-20T06:26:43.545Z,28.97
2023-05-20T06:29:49.186Z,28.52
2023-05-20T06:32:56.032Z,28.20
2023-05-20T06:36:02.800Z,27.33
2023-05-20T06:39:10.817Z,28.01
2023-05-20T06:42:17.537Z,26.90
2023-05-20T06:45:25.851Z,26.04
2023-05-20T06:48:33.883Z,27.04
2023-05-20T06:51:39.721Z,27.04
2023-05-20T06:54:47.111Z,26.95
2023-05-20T06:57:54.456Z,26.98
2023-05-20T07:00:53.460Z,26.55
2023-05-20T07:04:00.480Z,25.95
2023-05-20T07:07:06.938Z,25.80
2023-05-20T07:10:13.129Z,25.57
2023-05-20T07:13:20.191Z,24.47
2023-05-20T07:16:26.782Z,25.29
2023-05-20T07:19:31.704Z,24.37
2023-05-20T07:22:38.258Z,24.66
2023-05-20T07:25:45.557Z,22.72
2023-05-20T07:28:53.516Z,20.92
2023-05-20T07:31:58.945Z,21.61
2023-05-20T07:35:05.100Z,22.59
2023-05-20T07:38:10.442Z,20.97
2023-05-20T07:41:18.447Z,21.11
2023-05-20T07:44:27.179Z,20.01
2023-05-20T07:47:33.498Z,21.19
2023-05-20T07:50:39.332Z,20.07
2023-05-20T07:53:45.097Z,20.43
2023-05-20T07:56:52.786Z,20.68
2023-05-20T08:00:01.430Z,20.99
2023-05-20T08:03:09.706Z,21.04
2023-05-20T08:06:25.212Z,20.75
2023-05-20T08:09:31.898Z,21.16
2023-05-20T08:12:37.944Z,20.67
2023-05-20T08:15:37.802Z,19.81
2023-05-20T08:18:44.268Z,20.79
2023-05-20T08:21:51.986Z,20.77
2023-05-20T08:24:57.907Z,19.45
2023-05-20T08:28:05.880Z,19.94
2023-05-20T08:31:12.363Z,20.70
2023-05-20T08:34:17.986Z,20.70
2023-05-20T08:37:24.685Z,20.39
2023-05-20T08:40:30.786Z,19.76
2023-05-20T08:43:37.899Z,19.44
2023-05-20T08:46:47.685Z,19.68
2023-05-20T08:49:54.436Z,19.76
2023-05-20T08:52:55.241Z,19.90
2023-05-20T08:56:09.903Z,19.46
2023-05-20T08:59:16.789Z,19.33
2023-05-20T09:02:24.594Z,18.69
2023-05-20T09:05:30.461Z,19.10
2023-05-20T09:08:40.211Z,20.02
2023-05-20T09:11:45.584Z,18.77
2023-05-20T09:14:51.537Z,18.97
2023-05-20T09:17:58.105Z,18.25
2023-05-20T09:21:05.285Z,18.88
2023-05-20T09:24:05.005Z,17.42
2023-05-20T09:27:12.751Z,18.31
2023-05-20T09:30:21.387Z,18.45
2023-05-20T09:33:28.782Z,17.61
2023-05-20T09:36:34.365Z,17.42
2023-05-20T09:39:42.372Z,16.91
2023-05-20T09:42:59.724Z,17.79
2023-05-20T09:46:07.870Z,17.71
2023-05-20T09:49:14.245Z,16.80
2023-05-20T09:52:21.409Z,17.90
2023-05-20T09:55:27.532Z,17.45
2023-05-20T09:58:34.879Z,17.85
2023-05-20T10:01:41.010Z,17.16
2023-05-20T10:04:49.690Z,17.80
2023-05-20T10:08:16.029Z,17.63
2023-05-20T10:11:30.986Z,17.74
2023-05-20T10:15:16.922Z,18.08
2023-05-20T10:18:52.360Z,17.57
2023-05-20T10:21:56.863Z,18.85
2023-05-20T10:25:02.879Z,17.60
2023-05-20T10:28:13.101Z,17.38
2023-05-20T10:31:30.723Z,17.28
2023-05-20T10:34:37.234Z,17.74
2023-05-20T10:37:47.402Z,17.67
2023-05-20T10:40:53.505Z,17.89
2023-05-20T10:43:58.150Z,17.50
2023-05-20T10:47:23.552Z,17.29
2023-05-20T10:50:12.627Z,17.81
2023-05-20T10:53:32.370Z,18.83
2023-05-20T10:56:33.871Z,17.99
2023-05-20T10:59:39.464Z,18.48
2023-05-20T11:02:46.732Z,18.48
2023-05-20T11:05:51.553Z,18.46
2023-05-20T11:08:57.655Z,17.68
2023-05-20T11:12:07.633Z,17.65
2023-05-20T11:15:14.481Z,17.80
2023-05-20T11:18:21.747Z,17.82
2023-05-20T11:21:26.980Z,17.85
2023-05-20T11:24:43.110Z,18.52
2023-05-20T11:27:48.624Z,18.04
2023-05-20T11:30:57.091Z,18.53
2023-05-20T11:34:02.904Z,17.69
2023-05-20T11:37:14.422Z,18.10
2023-05-20T11:40:22.583Z,18.02
2023-05-20T11:43:29.703Z,18.09
2023-05-20T11:46:36.524Z,18.80
2023-05-20T11:49:41.280Z,18.88
2023-05-20T11:52:50.825Z,18.55
2023-05-20T11:56:06.399Z,18.76
2023-05-20T11:59:14.894Z,18.16
2023-05-20T12:02:20.707Z,19.35
2023-05-20T12:05:26.038Z,18.12
2023-05-20T12:08:31.652Z,18.76
2023-05-20T12:11:37.197Z,19.67
2023-05-20T12:14:42.168Z,18.44
2023-05-20T12:18:06.524Z,18.74
2023-05-20T12:21:11.447Z,18.21
2023-05-20T12:24:17.980Z,18.69
2023-05-20T12:27:24.229Z,17.91
2023-05-20T12:30:34.094Z,18.56
2023-05-20T12:33:40.019Z,18.87
2023-05-20T12:36:45.862Z,18.21
2023-05-20T12:39:51.580Z,18.57
2023-05-20T12:42:58.714Z,18.58
2023-05-20T12:46:04.207Z,18.79
2023-05-20T12:49:09.607Z,17.80
2023-05-20T12:52:22.434Z,18.37
2023-05-20T12:55:23.262Z,18.05
2023-05-20T12:58:29.926Z,18.51
2023-05-20T13:01:36.793Z,18.29
2023-05-20T13:04:42.707Z,18.44
2023-05-20T13:07:48.235Z,18.80
2023-05-20T13:10:53.530Z,19.35
2023-05-20T13:14:00.635Z,18.91
2023-05-20T13:17:06.245Z,19.33
2023-05-20T13:20:12.070Z,18.89
2023-05-20T13:23:17.777Z,19.91
2023-05-20T13:26:23.117Z,18.64
2023-05-20T13:29:35.471Z,18.35
2023-05-20T13:32:41.980Z,18.48
2023-05-20T13:35:40.345Z,18.92
2023-05-20T13:38:46.124Z,19.23
2023-05-20T13:41:50.901Z,19.25
2023-05-20T13:44:58.999Z,19.40
2023-05-20T13:48:04.782Z,19.30
2023-05-20T13:51:11.214Z,19.15
2023-05-20T13:54:17.905Z,19.02
2023-05-20T13:57:23.334Z,18.25
2023-05-20T14:00:29.033Z,18.46
2023-05-20T14:03:35.667Z,19.03
2023-05-20T14:06:40.950Z,18.50
2023-05-20T14:09:45.299Z,19.23
2023-05-20T14:12:51.976Z,18.72
2023-05-20T14:15:58.962Z,18.95
2023-05-20T14:19:03.735Z,18.99
2023-05-20T14:22:10.282Z,19.47
2023-05-20T14:25:16.119Z,19.11
2023-05-20T14:28:22.058Z,19.07
2023-05-20T14:31:27.632Z,18.59
2023-05-20T14:34:34.282Z,18.78
2023-05-20T14:37:40.184Z,18.99
2023-05-20T14:40:45.155Z,18.97
2023-05-20T14:43:50.828Z,18.59
2023-05-20T14:46:56.478Z,19.04
2023-05-20T14:50:02.993Z,18.92
2023-05-20T14:53:08.624Z,19.15
2023-05-20T14:56:15.310Z,19.12
2023-05-20T14:59:20.941Z,18.81
2023-05-20T15:02:26.464Z,19.38
2023-05-20T15:05:32.804Z,19.25
2023-05-20T15:08:39.526Z,18.79
2023-05-20T15:11:46.140Z,19.24
2023-05-20T15:14:51.969Z,18.91
2023-05-20T15:17:58.739Z,18.46
2023-05-20T15:21:07.131Z,18.47
2023-05-20T15:24:13.244Z,18.66
2023-05-20T15:27:19.955Z,19.14
2023-05-20T15:30:26.445Z,19.71
2023-05-20T15:33:33.570Z,20.04
2023-05-20T15:36:43.022Z,20.39
2023-05-20T15:39:49.959Z,21.07
2023-05-20T15:42:55.393Z,20.39
2023-05-20T15:45:55.185Z,20.75
2023-05-20T15:48:47.722Z,21.18
2023-05-20T15:52:03.095Z,21.33
2023-05-20T15:54:59.721Z,21.42
2023-05-20T15:58:05.240Z,21.57
2023-05-20T16:01:11.025Z,21.67
2023-05-20T16:04:16.609Z,21.95
2023-05-20T16:07:23.306Z,21.73
2023-05-20T16:10:28.117Z,20.90
2023-05-20T16:13:34.756Z,20.55
2023-05-20T16:16:40.300Z,20.56
2023-05-20T16:19:47.244Z,21.03
2023-05-20T16:22:51.824Z,21.25
2023-05-20T16:25:58.621Z,21.20
2023-05-20T16:29:04.989Z,21.41
2023-05-20T16:32:10.272Z,21.60
2023-05-20T16:35:16.295Z,21.37
2023-05-20T16:38:22.079Z,21.68
2023-05-20T16:41:26.734Z,21.69
2023-05-20T16:44:32.264Z,21.98
2023-05-20T16:47:31.073Z,22.27
2023-05-20T16:50:24.445Z,22.50
2023-05-20T16:53:30.146Z,22.78
2023-05-20T16:56:37.087Z,23.07
2023-05-20T16:59:42.556Z,23.31
2023-05-20T17:02:48.353Z,23.37
2023-05-20T17:05:55.268Z,24.04
2023-05-20T17:09:00.993Z,24.71
2023-05-20T17:12:06.016Z,25.17
2023-05-20T17:15:13.045Z,25.49
2023-05-20T17:18:18.702Z,26.03
2023-05-20T17:21:26.456Z,26.65
2023-05-20T17:24:32.073Z,27.39
2023-05-20T17:27:30.230Z,27.42
2023-05-20T17:30:35.933Z,27.45
2023-05-20T17:33:41.728Z,26.71
2023-05-20T17:36:48.231Z,28.82
2023-05-20T17:39:56.159Z,29.67
2023-05-20T17:43:02.302Z,30.23
2023-05-20T17:46:07.296Z,30.65
2023-05-20T17:49:13.792Z,30.29
2023-05-20T17:52:19.164Z,30.73
2023-05-20T17:55:25.261Z,31.31
2023-05-20T17:58:31.781Z,31.17
2023-05-20T18:01:38.447Z,31.81
2023-05-20T18:04:44.739Z,31.43
2023-05-20T18:07:45.096Z,31.78
2023-05-20T18:10:51.589Z,32.01
2023-05-20T18:13:57.562Z,32.19
2023-05-20T18:17:08.143Z,31.99
2023-05-20T18:20:13.891Z,32.98
2023-05-20T18:23:19.526Z,33.51
2023-05-20T18:26:24.998Z,34.44
2023-05-20T18:29:32.786Z,34.41
2023-05-20T18:32:40.479Z,34.35
2023-05-20T18:35:46.689Z,34.63
2023-05-20T18:38:53.251Z,35.67
2023-05-20T18:41:59.183Z,35.41
2023-05-20T18:45:05.403Z,35.21
2023-05-20T18:48:17.843Z,34.88
2023-05-20T18:51:12.428Z,35.10
2023-05-20T18:54:19.097Z,35.82
2023-05-20T18:57:24.513Z,35.89
2023-05-20T19:00:31.303Z,34.56
2023-05-20T19:03:36.960Z,33.96
2023-05-20T19:06:44.934Z,34.09
2023-05-20T19:09:50.353Z,33.20
2023-05-20T19:12:56.602Z,33.83
2023-05-20T19:16:01.771Z,33.15
2023-05-20T19:19:08.031Z,32.49
2023-05-20T19:22:13.771Z,32.71
2023-05-20T19:25:19.743Z,33.32
2023-05-20T19:28:24.541Z,34.37
2023-05-20T19:31:30.279Z,34.88
2023-05-20T19:34:35.179Z,35.30
2023-05-20T19:37:42.011Z,35.75
2023-05-20T19:40:49.354Z,36.06
2023-05-20T19:43:56.695Z,36.16
2023-05-20T19:47:03.216Z,36.46
2023-05-20T19:50:08.677Z,36.69
2023-05-20T19:53:15.398Z,36.93
2023-05-20T19:56:23.018Z,37.08
2023-05-20T19:59:29.655Z,37.43
2023-05-20T20:02:36.223Z,37.57
2023-05-20T20:05:44.011Z,38.19
2023-05-20T20:08:49.529Z,38.69
2023-05-20T20:11:55.754Z,38.99
2023-05-20T20:15:01.788Z,39.64
2023-05-20T20:18:08.447Z,40.03
2023-05-20T20:21:16.322Z,39.63
2023-05-20T20:24:22.517Z,39.97
2023-05-20T20:27:29.324Z,40.96
2023-05-20T20:30:34.551Z,41.33
2023-05-20T20:33:41.250Z,41.77
2023-05-20T20:36:46.719Z,41.95
2023-05-20T20:39:54.138Z,42.15
2023-05-20T20:43:01.114Z,42.54
2023-05-20T20:46:06.954Z,42.48
2023-05-20T20:49:12.646Z,42.78
2023-05-20T20:52:18.321Z,43.03
2023-05-20T20:55:25.114Z,43.48
2023-05-20T20:58:31.749Z,43.97
2023-05-20T21:01:37.516Z,44.06
2023-05-20T21:04:45.344Z,44.19
2023-05-20T21:07:52.310Z,44.17
2023-05-20T21:10:59.201Z,44.29
2023-05-20T21:14:05.197Z,44.23
2023-05-20T21:17:11.960Z,44.19
2023-05-20T21:20:20.875Z,44.39
2023-05-20T21:23:26.020Z,44.28
2023-05-20T21:26:27.628Z,44.42
2023-05-20T21:29:21.007Z,44.23
2023-05-20T21:32:26.918Z,44.43
2023-05-20T21:35:32.692Z,44.39
2023-05-20T21:38:30.947Z,44.36
2023-05-20T21:41:37.829Z,44.52
2023-05-20T21:44:42.761Z,44.71
2023-05-20T21:47:48.953Z,44.75
2023-05-20T21:50:49.031Z,45.12
2023-05-20T21:53:54.689Z,45.21
2023-05-20T21:57:01.311Z,45.23
2023-05-20T22:00:06.755Z,45.36
2023-05-20T22:03:11.976Z,45.47
2023-05-20T22:06:18.112Z,45.56
2023-05-20T22:09:24.225Z,45.76
2023-05-20T22:12:29.601Z,45.88
2023-05-20T22:15:36.252Z,46.02
2023-05-20T22:18:42.635Z,45.93
2023-05-20T22:21:50.530Z,45.89
2023-05-20T22:24:57.127Z,46.18
2023-05-20T22:28:03.716Z,46.13
2023-05-20T22:31:10.064Z,46.15
2023-05-20T22:34:16.024Z,46.17
2023-05-20T22:37:23.215Z,46.38
2023-05-20T22:40:30.140Z,46.62
2023-05-20T22:43:35.454Z,46.82
2023-05-20T22:46:42.380Z,46.88
2023-05-20T22:49:48.656Z,47.22
2023-05-20T22:52:49.659Z,47.61
2023-05-20T22:55:56.181Z,47.81
2023-05-20T22:59:01.974Z,48.02
2023-05-20T23:02:07.092Z,48.47
2023-05-20T23:05:13.956Z,48.70
2023-05-20T23:08:19.526Z,48.82
2023-05-20T23:11:24.709Z,49.07
2023-05-20T23:14:31.248Z,49.47
2023-05-20T23:17:36.670Z,49.76
2023-05-20T23:20:42.383Z,50.39
2023-05-20T23:23:48.640Z,50.63
2023-05-20T23:26:54.726Z,50.62
2023-05-20T23:30:00.975Z,50.60
2023-05-20T23:33:09.258Z,50.45
2023-05-20T23:36:16.577Z,50.54
2023-05-20T23:39:23.502Z,50.81
2023-05-20T23:42:30.404Z,50.83
2023-05-20T23:45:36.676Z,50.95
2023-05-20T23:48:44.133Z,50.93
2023-05-20T23:51:49.850Z,51.37
2023-05-20T23:54:56.912Z,51.46
2023-05-20T23:58:02.886Z,51.91
